Time;durP1;ratioP1;P1;durP2;ratioP2;P2;SDS_P1;SDS_P2;PMS_P1;PMS_P2;Temp;Humidity;BMP_temperature;BMP_pressure;BME280_temperature;BME280_humidity;BME280_pressure;Samples;Min_cycle;Max_cycle;Signal;HPM_P1;HPM_P2
2023/08/17 00:01:15;;;;;;;6.93;6.38;;;26.10;99.90;;;;;;6205193;28;88274;-73
2023/08/17 00:04:17;;;;;;;6.75;6.20;;;26.10;99.90;;;;;;6201858;28;89169;-73
2023/08/17 00:07:20;;;;;;;6.60;6.00;;;26.00;99.90;;;;;;6194681;28;89107;-73
2023/08/17 00:10:22;;;;;;;6.93;6.32;;;26.10;99.90;;;;;;6198645;28;90206;-73
2023/08/17 00:13:24;;;;;;;7.00;6.40;;;26.00;99.90;;;;;;6199791;28;89068;-73
2023/08/17 00:16:26;;;;;;;6.78;6.18;;;26.10;99.90;;;;;;6198777;28;90104;-73
2023/08/17 00:19:28;;;;;;;6.40;5.90;;;26.00;99.90;;;;;;6206018;28;88026;-73
2023/08/17 00:22:32;;;;;;;6.45;5.85;;;26.00;99.90;;;;;;6194028;28;89365;-73
2023/08/17 00:25:34;;;;;;;6.60;6.10;;;26.00;99.90;;;;;;6189412;28;89153;-71
2023/08/17 00:28:36;;;;;;;6.55;6.05;;;26.00;99.90;;;;;;6199048;28;89383;-71
2023/08/17 00:31:38;;;;;;;6.82;6.22;;;26.00;99.90;;;;;;6191685;28;88479;-71
2023/08/17 00:34:40;;;;;;;7.43;6.60;;;26.00;99.90;;;;;;6186226;28;88317;-71
2023/08/17 00:37:43;;;;;;;6.85;6.35;;;26.00;99.90;;;;;;6187825;28;89621;-71
2023/08/17 00:40:45;;;;;;;7.05;6.45;;;26.00;99.90;;;;;;6187466;28;90294;-72
2023/08/17 00:43:47;;;;;;;6.25;5.75;;;26.00;99.90;;;;;;6195766;28;89000;-71
2023/08/17 00:46:49;;;;;;;7.20;6.60;;;25.90;99.90;;;;;;6194830;28;89055;-71
2023/08/17 00:49:51;;;;;;;7.13;6.50;;;26.00;99.90;;;;;;6194051;28;89254;-71
2023/08/17 00:52:56;;;;;;;7.00;6.13;;;25.90;99.90;;;;;;6190689;28;89284;-71
2023/08/17 00:56:00;;;;;;;7.10;6.50;;;25.90;99.90;;;;;;6192550;28;89143;-71
2023/08/17 00:59:02;;;;;;;7.13;6.53;;;25.90;99.90;;;;;;6192496;28;89416;-71
2023/08/17 01:02:05;;;;;;;6.78;6.18;;;25.90;99.90;;;;;;6197401;28;88496;-72
2023/08/17 01:05:08;;;;;;;6.93;6.32;;;26.00;99.90;;;;;;6204598;28;89038;-72
2023/08/17 01:08:11;;;;;;;6.63;6.03;;;25.90;99.90;;;;;;6191258;28;89629;-72
2023/08/17 01:11:24;;;;;;;6.63;6.03;;;25.90;99.90;;;;;;6196078;28;90093;-72
2023/08/17 01:14:31;;;;;;;6.57;5.97;;;25.90;99.90;;;;;;6194759;28;89070;-72
2023/08/17 01:17:40;;;;;;;6.50;5.90;;;25.90;99.90;;;;;;6195368;28;89055;-72
2023/08/17 01:20:42;;;;;;;6.70;6.10;;;25.90;99.90;;;;;;6198353;28;89234;-73
2023/08/17 01:23:48;;;;;;;6.82;6.22;;;25.90;99.90;;;;;;6200477;28;89193;-71
2023/08/17 01:26:50;;;;;;;7.10;6.50;;;25.80;99.90;;;;;;6205800;28;89363;-72
2023/08/17 01:29:52;;;;;;;6.93;6.38;;;25.90;99.90;;;;;;6200788;28;89161;-72
2023/08/17 01:33:02;;;;;;;6.65;6.15;;;25.90;99.90;;;;;;6197800;28;88873;-74
2023/08/17 01:36:14;;;;;;;6.30;5.80;;;25.90;99.90;;;;;;6205396;28;89079;-73
2023/08/17 01:39:18;;;;;;;6.85;6.25;;;25.80;99.90;;;;;;6209864;28;89031;-73
2023/08/17 01:42:21;;;;;;;7.70;7.00;;;25.80;99.90;;;;;;6204985;28;89917;-74
2023/08/17 01:45:23;;;;;;;6.75;6.13;;;25.80;99.90;;;;;;6204604;28;89073;-73
2023/08/17 01:48:25;;;;;;;6.95;6.32;;;25.80;99.90;;;;;;6200829;28;88747;-74
2023/08/17 01:51:27;;;;;;;7.15;6.50;;;25.80;99.90;;;;;;6205644;28;89410;-73
2023/08/17 01:54:31;;;;;;;6.88;6.35;;;25.80;99.90;;;;;;6203405;28;89278;-72
2023/08/17 01:57:33;;;;;;;6.40;5.90;;;25.80;99.90;;;;;;6211608;28;89097;-72
2023/08/17 02:00:35;;;;;;;6.65;6.15;;;25.80;99.90;;;;;;6206088;28;89087;-71
2023/08/17 02:03:37;;;;;;;6.88;6.30;;;25.80;99.90;;;;;;6206142;28;88016;-72
2023/08/17 02:06:39;;;;;;;6.43;5.90;;;25.80;99.90;;;;;;6204175;28;88993;-72
2023/08/17 02:09:42;;;;;;;7.18;6.57;;;25.80;99.90;;;;;;6198067;28;89447;-72
2023/08/17 02:12:44;;;;;;;6.82;6.32;;;25.80;99.90;;;;;;6206934;28;88963;-72
2023/08/17 02:15:47;;;;;;;7.13;6.53;;;25.80;99.90;;;;;;6197876;28;88976;-72
2023/08/17 02:18:49;;;;;;;7.05;6.45;;;25.70;99.90;;;;;;6214330;28;89152;-72
2023/08/17 02:21:51;;;;;;;6.93;6.22;;;25.80;99.90;;;;;;6220451;28;89160;-72
2023/08/17 02:24:54;;;;;;;6.60;6.07;;;25.80;99.90;;;;;;6227952;28;90374;-72
2023/08/17 02:27:56;;;;;;;6.70;6.10;;;25.70;99.90;;;;;;6218051;28;89021;-72
2023/08/17 02:30:59;;;;;;;7.30;6.60;;;25.80;99.90;;;;;;6216840;28;89075;-72
2023/08/17 02:34:04;;;;;;;7.18;6.47;;;25.80;99.90;;;;;;6222582;28;88715;-73
2023/08/17 02:37:06;;;;;;;6.85;6.32;;;25.70;99.90;;;;;;6221055;28;89078;-72
2023/08/17 02:40:11;;;;;;;6.65;6.07;;;25.70;99.90;;;;;;6225760;28;89039;-72
2023/08/17 02:43:13;;;;;;;7.25;6.53;;;25.70;99.90;;;;;;6224698;28;90326;-74
2023/08/17 02:46:16;;;;;;;7.03;6.43;;;25.70;99.90;;;;;;6222833;28;89050;-74
2023/08/17 02:49:18;;;;;;;7.45;6.60;;;25.70;99.90;;;;;;6219814;28;89112;-74
2023/08/17 02:52:20;;;;;;;6.45;5.95;;;25.70;99.90;;;;;;6225076;28;88953;-74
2023/08/17 02:55:23;;;;;;;7.18;6.57;;;25.70;99.90;;;;;;6223525;28;89021;-74
2023/08/17 02:58:25;;;;;;;6.07;5.60;;;25.70;99.90;;;;;;6224806;28;88327;-75
2023/08/17 03:01:29;;;;;;;7.28;6.57;;;25.70;99.90;;;;;;6229523;28;91059;-74
2023/08/17 03:04:30;;;;;;;5.88;5.38;;;25.70;99.90;;;;;;6225938;28;88567;-74
2023/08/17 03:07:32;;;;;;;7.05;6.45;;;25.70;99.90;;;;;;6230915;28;89171;-74
2023/08/17 03:10:36;;;;;;;7.13;6.43;;;25.60;99.90;;;;;;6222633;28;91059;-74
2023/08/17 03:13:38;;;;;;;7.22;6.57;;;25.60;99.90;;;;;;6222020;28;88705;-73
2023/08/17 03:16:40;;;;;;;7.57;6.40;;;25.60;99.90;;;;;;6225713;28;89757;-73
2023/08/17 03:19:42;;;;;;;6.95;6.35;;;25.70;99.90;;;;;;6226130;28;89052;-74
2023/08/17 03:22:44;;;;;;;7.15;6.15;;;25.60;99.90;;;;;;6221565;28;89072;-74
2023/08/17 03:25:47;;;;;;;6.95;5.97;;;25.60;99.90;;;;;;6226601;28;89087;-73
2023/08/17 03:28:49;;;;;;;7.40;6.70;;;25.60;99.90;;;;;;6224181;28;89064;-74
2023/08/17 03:31:51;;;;;;;6.97;6.28;;;25.60;99.90;;;;;;6223334;28;89103;-73
2023/08/17 03:34:53;;;;;;;7.35;6.65;;;25.60;99.90;;;;;;6225204;28;88395;-74
2023/08/17 03:37:55;;;;;;;7.55;6.93;;;25.60;99.90;;;;;;6227822;28;89004;-73
2023/08/17 03:40:58;;;;;;;6.88;6.30;;;25.60;99.90;;;;;;6225494;28;89204;-73
2023/08/17 03:44:00;;;;;;;7.03;6.32;;;25.50;99.90;;;;;;6226935;28;89766;-73
2023/08/17 03:47:02;;;;;;;7.10;6.50;;;25.50;99.90;;;;;;6224777;28;89074;-73
2023/08/17 03:50:04;;;;;;;7.25;6.65;;;25.50;99.90;;;;;;6222462;28;89101;-73
2023/08/17 03:53:06;;;;;;;7.38;6.72;;;25.50;99.90;;;;;;6219443;28;89205;-73
2023/08/17 03:56:10;;;;;;;7.50;6.78;;;25.50;99.90;;;;;;6225347;28;89370;-72
2023/08/17 03:59:12;;;;;;;7.47;6.00;;;25.50;99.90;;;;;;6224667;28;88978;-72
2023/08/17 04:02:14;;;;;;;8.07;7.30;;;25.50;99.90;;;;;;6222451;28;89142;-71
2023/08/17 04:05:16;;;;;;;7.65;6.85;;;25.50;99.90;;;;;;6212465;28;88658;-71
2023/08/17 04:08:18;;;;;;;9.00;8.15;;;25.50;99.90;;;;;;6221492;28;89162;-71
2023/08/17 04:11:21;;;;;;;9.02;8.13;;;25.50;99.90;;;;;;6202190;28;89271;-73
2023/08/17 04:14:23;;;;;;;8.68;7.97;;;25.60;99.90;;;;;;6221721;28;89905;-73
2023/08/17 04:17:25;;;;;;;8.60;7.90;;;25.50;99.90;;;;;;6226692;28;89056;-72
2023/08/17 04:20:27;;;;;;;8.73;7.93;;;25.50;99.90;;;;;;6232035;28;89416;-73
2023/08/17 04:23:29;;;;;;;7.90;7.20;;;25.50;99.90;;;;;;6225576;28;89063;-73
2023/08/17 04:26:32;;;;;;;8.50;7.63;;;25.50;99.90;;;;;;6230009;28;89031;-74
2023/08/17 04:29:35;;;;;;;7.78;7.10;;;25.60;99.90;;;;;;6224772;28;89190;-73
2023/08/17 04:32:37;;;;;;;8.63;7.32;;;25.50;99.90;;;;;;6221302;28;88575;-73
2023/08/17 04:35:39;;;;;;;8.65;6.90;;;25.50;99.90;;;;;;6221779;28;88330;-74
2023/08/17 04:38:41;;;;;;;8.55;7.75;;;25.50;99.90;;;;;;6222114;28;89317;-73
2023/08/17 04:41:45;;;;;;;7.78;7.07;;;25.50;99.90;;;;;;6223398;28;89049;-74
2023/08/17 04:44:47;;;;;;;7.43;6.72;;;25.50;99.90;;;;;;6233922;28;90113;-74
2023/08/17 04:47:49;;;;;;;8.07;6.68;;;25.50;99.90;;;;;;6229165;28;89424;-74
2023/08/17 04:50:52;;;;;;;7.85;7.10;;;25.50;99.90;;;;;;6237753;28;89156;-74
2023/08/17 04:53:54;;;;;;;8.40;7.60;;;25.50;99.90;;;;;;6226670;28;89007;-75
2023/08/17 04:56:57;;;;;;;8.43;7.57;;;25.50;99.90;;;;;;6212008;28;89032;-75
2023/08/17 04:59:59;;;;;;;8.23;6.85;;;25.50;99.90;;;;;;6230026;28;89060;-74
2023/08/17 05:03:01;;;;;;;7.90;7.20;;;25.50;99.90;;;;;;6227629;28;89318;-74
2023/08/17 05:06:04;;;;;;;7.43;6.63;;;25.50;99.90;;;;;;6229815;28;87399;-75
2023/08/17 05:09:06;;;;;;;7.40;6.70;;;25.60;99.90;;;;;;6229760;28;87944;-75
2023/08/17 05:12:10;;;;;;;7.85;7.03;;;25.60;99.90;;;;;;6225399;28;88894;-75
2023/08/17 05:15:12;;;;;;;7.55;6.90;;;25.60;99.90;;;;;;6215478;28;89990;-74
2023/08/17 05:18:14;;;;;;;7.43;6.72;;;25.60;99.90;;;;;;6220990;28;89056;-74
2023/08/17 05:21:16;;;;;;;7.18;6.40;;;25.60;99.90;;;;;;6229096;28;89016;-74
2023/08/17 05:24:20;;;;;;;7.80;7.07;;;25.60;99.90;;;;;;6229932;28;89287;-74
2023/08/17 05:27:23;;;;;;;7.30;6.70;;;25.60;99.90;;;;;;6223981;28;89103;-74
2023/08/17 05:30:25;;;;;;;7.68;7.00;;;25.60;99.90;;;;;;6228968;28;89291;-73
2023/08/17 05:33:27;;;;;;;8.02;6.80;;;25.60;99.90;;;;;;6211612;28;89037;-74
2023/08/17 05:36:29;;;;;;;7.30;6.60;;;25.70;99.90;;;;;;6227292;28;88172;-72
2023/08/17 05:39:32;;;;;;;7.47;6.80;;;25.60;99.90;;;;;;6241093;28;88938;-72
2023/08/17 05:42:35;;;;;;;7.72;7.03;;;25.60;99.90;;;;;;6225083;28;89692;-72
2023/08/17 05:45:39;;;;;;;7.72;7.03;;;25.60;99.90;;;;;;6234003;28;90335;-72
2023/08/17 05:48:41;;;;;;;8.40;7.15;;;25.60;99.90;;;;;;6238483;28;89040;-75
2023/08/17 05:51:43;;;;;;;8.13;6.32;;;25.60;99.90;;;;;;6232337;28;89005;-75
2023/08/17 05:54:48;;;;;;;8.13;7.38;;;25.60;99.90;;;;;;6230105;28;90270;-75
2023/08/17 05:57:51;;;;;;;7.90;7.10;;;25.60;99.90;;;;;;6234328;28;89003;-75
2023/08/17 06:00:53;;;;;;;7.00;6.40;;;25.60;99.90;;;;;;6234836;28;89028;-76
2023/08/17 06:03:56;;;;;;;7.20;6.47;;;25.60;99.90;;;;;;6237045;28;89525;-76
2023/08/17 06:06:57;;;;;;;6.78;6.18;;;25.60;99.90;;;;;;6237642;28;88328;-74
2023/08/17 06:10:00;;;;;;;7.30;6.60;;;25.60;99.90;;;;;;6220686;28;89598;-74
2023/08/17 06:13:03;;;;;;;7.40;6.70;;;25.60;99.90;;;;;;6230150;28;89009;-73
2023/08/17 06:16:05;;;;;;;7.50;6.80;;;25.60;99.90;;;;;;6231796;28;90768;-74
2023/08/17 06:19:07;;;;;;;7.57;6.80;;;25.60;99.90;;;;;;6232529;28;89141;-74
2023/08/17 06:22:09;;;;;;;7.93;7.13;;;25.60;99.90;;;;;;6230466;28;89242;-72
2023/08/17 06:25:11;;;;;;;7.82;7.10;;;25.60;99.90;;;;;;6216561;28;89126;-74
2023/08/17 06:28:15;;;;;;;10.85;6.82;;;25.60;99.90;;;;;;6231409;28;89597;-70
2023/08/17 06:31:17;;;;;;;8.23;7.43;;;25.50;99.90;;;;;;6230379;28;89152;-69
2023/08/17 06:34:19;;;;;;;7.40;6.80;;;25.60;99.90;;;;;;6215275;28;89042;-69
2023/08/17 06:37:21;;;;;;;8.13;7.18;;;25.60;99.90;;;;;;6232974;28;88333;-69
2023/08/17 06:40:23;;;;;;;7.20;6.60;;;25.60;99.90;;;;;;6218526;28;89041;-70
2023/08/17 06:43:26;;;;;;;7.80;6.95;;;25.60;99.90;;;;;;6230580;28;89399;-69
2023/08/17 06:46:28;;;;;;;7.68;6.85;;;25.60;99.90;;;;;;6232038;28;90075;-69
2023/08/17 06:49:32;;;;;;;7.68;6.95;;;25.60;99.90;;;;;;6231875;28;89093;-69
2023/08/17 06:52:34;;;;;;;7.30;6.70;;;25.60;99.90;;;;;;6232907;28;88846;-69
2023/08/17 06:55:36;;;;;;;7.40;6.80;;;25.60;99.90;;;;;;6229671;28;89172;-69
2023/08/17 06:58:40;;;;;;;7.63;6.93;;;25.60;99.90;;;;;;6230476;28;89153;-70
2023/08/17 07:01:42;;;;;;;8.13;6.97;;;25.60;99.90;;;;;;6232101;28;89130;-69
2023/08/17 07:04:44;;;;;;;7.70;6.90;;;25.60;99.90;;;;;;6238579;28;89089;-69
2023/08/17 07:07:46;;;;;;;7.65;6.88;;;25.60;99.90;;;;;;6234560;28;87213;-70
2023/08/17 07:10:48;;;;;;;7.57;6.88;;;25.60;99.90;;;;;;6229262;28;88977;-69
2023/08/17 07:13:51;;;;;;;7.57;6.97;;;25.60;99.90;;;;;;6229240;28;91119;-69
2023/08/17 07:16:53;;;;;;;8.25;6.75;;;25.60;99.90;;;;;;6230575;28;89972;-68
2023/08/17 07:19:55;;;;;;;7.38;6.78;;;25.60;99.90;;;;;;6216952;28;88513;-70
2023/08/17 07:22:57;;;;;;;7.20;6.57;;;25.60;99.90;;;;;;6203294;28;89074;-69
2023/08/17 07:25:59;;;;;;;7.20;6.50;;;25.60;99.90;;;;;;6205238;28;90264;-69
2023/08/17 07:29:02;;;;;;;7.60;6.68;;;25.60;99.90;;;;;;6142714;28;88124;-69
2023/08/17 07:32:05;;;;;;;7.20;6.53;;;25.60;99.90;;;;;;6193075;28;89306;-69
2023/08/17 07:35:08;;;;;;;6.63;6.13;;;25.70;99.90;;;;;;6202089;28;89048;-69
2023/08/17 07:38:10;;;;;;;7.20;6.60;;;25.70;99.90;;;;;;6193805;28;88355;-69
2023/08/17 07:41:12;;;;;;;7.60;6.90;;;25.60;99.90;;;;;;6194711;28;89271;-71
2023/08/17 07:44:16;;;;;;;7.05;6.53;;;25.60;99.90;;;;;;6201963;28;89137;-69
2023/08/17 07:47:18;;;;;;;7.15;6.55;;;25.60;99.90;;;;;;6197380;28;90004;-69
2023/08/17 07:50:21;;;;;;;7.40;6.65;;;25.70;99.90;;;;;;6199330;28;89174;-69
2023/08/17 07:53:23;;;;;;;6.80;6.25;;;25.70;99.90;;;;;;6206476;28;88993;-69
2023/08/17 07:56:25;;;;;;;6.75;6.15;;;25.70;99.90;;;;;;6194201;28;88977;-69
2023/08/17 07:59:28;;;;;;;6.97;6.30;;;25.70;99.90;;;;;;6193847;28;88294;-69
2023/08/17 08:02:30;;;;;;;7.45;6.75;;;25.70;99.90;;;;;;6198314;28;88199;-69
2023/08/17 08:05:32;;;;;;;7.85;6.88;;;25.70;99.90;;;;;;6205275;28;87925;-71
2023/08/17 08:08:34;;;;;;;7.93;6.53;;;25.70;99.90;;;;;;6206164;28;88322;-71
2023/08/17 08:11:36;;;;;;;8.02;7.20;;;25.70;99.90;;;;;;6203883;28;88949;-72
2023/08/17 08:14:40;;;;;;;9.02;6.95;;;25.70;99.90;;;;;;6204627;28;89131;-71
2023/08/17 08:17:42;;;;;;;7.68;6.85;;;25.70;99.90;;;;;;6196667;28;89947;-71
2023/08/17 08:20:44;;;;;;;7.70;6.28;;;25.70;99.90;;;;;;6191648;28;89076;-72
2023/08/17 08:23:45;;;;;;;7.38;6.68;;;25.70;99.90;;;;;;6192581;28;89148;-71
2023/08/17 08:26:48;;;;;;;7.25;6.43;;;25.70;99.90;;;;;;6193782;28;89012;-72
2023/08/17 08:29:51;;;;;;;7.47;6.78;;;25.70;99.90;;;;;;6203684;28;89033;-71
2023/08/17 08:32:55;;;;;;;7.45;6.50;;;25.70;99.90;;;;;;6201241;28;89383;-71
2023/08/17 08:35:57;;;;;;;7.20;6.60;;;25.70;99.90;;;;;;6204181;28;89172;-71
2023/08/17 08:38:59;;;;;;;7.28;6.57;;;25.70;99.90;;;;;;6198452;28;87335;-71
2023/08/17 08:42:01;;;;;;;9.32;7.43;;;25.70;99.90;;;;;;6194835;28;89205;-71
2023/08/17 08:45:05;;;;;;;8.63;7.03;;;25.70;99.90;;;;;;6203971;28;89242;-71
2023/08/17 08:48:09;;;;;;;7.10;6.50;;;25.70;99.90;;;;;;6192712;28;88924;-71
2023/08/17 08:51:17;;;;;;;6.97;6.40;;;25.70;99.90;;;;;;6197089;28;89148;-71
2023/08/17 08:54:22;;;;;;;6.80;6.20;;;25.70;99.90;;;;;;6194887;28;89461;-71
2023/08/17 08:57:25;;;;;;;6.80;6.30;;;25.80;99.90;;;;;;6201452;28;88983;-71
2023/08/17 09:00:29;;;;;;;7.10;6.50;;;25.70;99.90;;;;;;6201293;28;89209;-71
2023/08/17 09:03:33;;;;;;;7.97;6.40;;;25.70;99.90;;;;;;6193039;28;89000;-71
2023/08/17 09:06:36;;;;;;;7.35;6.65;;;25.70;99.90;;;;;;6205504;28;89118;-71
2023/08/17 09:09:38;;;;;;;7.53;6.88;;;25.70;99.90;;;;;;6197645;28;88354;-71
2023/08/17 09:12:41;;;;;;;7.47;6.78;;;25.80;99.90;;;;;;6206797;28;88561;-71
2023/08/17 09:15:44;;;;;;;8.05;7.25;;;25.80;99.90;;;;;;6199183;28;89447;-71
2023/08/17 09:18:46;;;;;;;7.30;6.70;;;25.70;99.90;;;;;;6201567;28;89947;-71
2023/08/17 09:21:48;;;;;;;7.07;6.50;;;25.80;99.90;;;;;;6186974;28;89072;-72
2023/08/17 09:24:50;;;;;;;7.00;6.40;;;25.70;99.90;;;;;;6201230;28;89007;-71
2023/08/17 09:27:52;;;;;;;8.95;6.93;;;25.70;99.90;;;;;;6209060;28;87993;-71
2023/08/17 09:30:58;;;;;;;7.20;6.60;;;25.80;99.90;;;;;;6209847;28;89438;-71
2023/08/17 09:33:59;;;;;;;7.40;6.70;;;25.80;99.90;;;;;;6216074;28;89148;-71
2023/08/17 09:37:04;;;;;;;7.47;6.78;;;25.80;99.90;;;;;;6209372;28;89046;-71
2023/08/17 09:40:08;;;;;;;7.57;6.75;;;25.80;99.90;;;;;;6209239;28;88409;-71
2023/08/17 09:43:11;;;;;;;7.00;6.30;;;25.70;99.90;;;;;;6207082;28;89230;-71
2023/08/17 09:46:15;;;;;;;7.20;6.60;;;25.70;99.90;;;;;;6193374;28;88997;-71
2023/08/17 09:49:19;;;;;;;7.18;6.55;;;25.80;99.90;;;;;;6207854;28;90069;-71
2023/08/17 09:52:21;;;;;;;7.35;6.75;;;25.70;99.90;;;;;;6208629;28;89327;-71
2023/08/17 09:55:24;;;;;;;7.30;6.70;;;25.70;99.90;;;;;;6198741;28;89120;-71
2023/08/17 09:58:26;;;;;;;7.22;6.63;;;25.80;99.90;;;;;;6215974;28;89331;-71
2023/08/17 10:01:30;;;;;;;7.22;6.63;;;25.80;99.90;;;;;;6187083;28;89059;-71
2023/08/17 10:04:35;;;;;;;7.40;6.70;;;25.80;99.90;;;;;;6195905;28;89374;-71
2023/08/17 10:07:42;;;;;;;7.47;6.57;;;25.80;99.90;;;;;;6208568;28;88998;-71
2023/08/17 10:10:45;;;;;;;7.90;7.10;;;25.80;99.90;;;;;;6208915;28;88351;-71
2023/08/17 10:13:52;;;;;;;7.30;6.70;;;25.80;99.90;;;;;;6216343;28;89000;-71
2023/08/17 10:17:02;;;;;;;6.90;6.40;;;25.80;99.90;;;;;;6216060;28;89159;-71
2023/08/17 10:20:05;;;;;;;7.32;6.68;;;25.80;99.90;;;;;;6210021;28;90053;-71
2023/08/17 10:23:13;;;;;;;6.90;6.40;;;25.80;99.90;;;;;;6207308;28;89072;-71
2023/08/17 10:26:14;;;;;;;7.35;6.78;;;25.80;99.90;;;;;;6196964;28;88990;-72
2023/08/17 10:29:17;;;;;;;7.15;6.55;;;25.80;99.90;;;;;;6192430;28;89002;-71
2023/08/17 10:32:23;;;;;;;7.40;6.80;;;25.80;99.90;;;;;;6203798;28;89376;-71
2023/08/17 10:35:27;;;;;;;7.30;6.70;;;25.80;99.90;;;;;;6200746;28;89107;-71
2023/08/17 10:38:29;;;;;;;7.60;6.90;;;25.80;99.90;;;;;;6207466;28;89200;-71
2023/08/17 10:41:31;;;;;;;7.45;6.85;;;25.80;99.90;;;;;;6209174;28;88226;-71
2023/08/17 10:44:41;;;;;;;7.25;6.65;;;25.80;99.90;;;;;;6206302;28;89098;-71
2023/08/17 10:47:44;;;;;;;7.18;6.53;;;25.80;99.90;;;;;;6210395;28;89056;-71
2023/08/17 10:51:01;;;;;;;7.18;6.65;;;25.80;99.90;;;;;;6201402;28;90002;-71
2023/08/17 10:54:04;;;;;;;7.40;6.80;;;25.80;99.90;;;;;;6190147;28;89045;-71
2023/08/17 10:57:25;;;;;;;7.35;6.75;;;25.80;99.90;;;;;;6199515;28;89062;-71
2023/08/17 11:00:34;;;;;;;7.80;7.10;;;25.80;99.90;;;;;;6206117;28;89460;-71
2023/08/17 11:03:39;;;;;;;7.30;6.70;;;25.80;99.90;;;;;;6201831;28;89232;-71
2023/08/17 11:06:42;;;;;;;7.57;6.95;;;25.80;99.90;;;;;;6205320;28;88980;-71
2023/08/17 11:09:44;;;;;;;6.68;6.15;;;25.80;99.90;;;;;;6196452;28;89048;-72
2023/08/17 11:12:46;;;;;;;7.30;6.60;;;25.80;99.90;;;;;;6195860;28;88654;-71
2023/08/17 11:15:48;;;;;;;7.88;7.18;;;25.80;99.90;;;;;;6200734;28;90187;-71
2023/08/17 11:18:53;;;;;;;6.85;6.35;;;25.80;99.90;;;;;;6206541;28;89244;-72
2023/08/17 11:21:55;;;;;;;6.97;6.38;;;25.80;99.90;;;;;;6228482;28;90015;-72
2023/08/17 11:24:57;;;;;;;6.90;6.40;;;25.80;99.90;;;;;;6223316;28;89079;-72
2023/08/17 11:27:59;;;;;;;7.57;6.97;;;25.80;99.90;;;;;;6215279;28;89148;-72
2023/08/17 11:31:03;;;;;;;6.72;6.22;;;25.80;99.90;;;;;;6236664;28;89102;-71
2023/08/17 11:34:06;;;;;;;7.38;6.78;;;25.80;99.90;;;;;;6230467;28;89025;-72
2023/08/17 11:37:08;;;;;;;7.25;6.65;;;25.80;99.90;;;;;;6217923;28;89085;-71
2023/08/17 11:40:11;;;;;;;7.50;6.78;;;25.90;99.90;;;;;;6228294;28;89047;-71
2023/08/17 11:43:14;;;;;;;7.47;6.88;;;25.80;99.90;;;;;;6218618;28;88323;-71
2023/08/17 11:46:16;;;;;;;7.40;6.70;;;25.80;99.90;;;;;;6214722;28;89164;-72
2023/08/17 11:49:19;;;;;;;7.13;6.55;;;25.80;99.90;;;;;;6225254;28;89081;-72
2023/08/17 11:52:21;;;;;;;7.15;6.63;;;25.80;99.90;;;;;;6229870;28;89992;-72
2023/08/17 11:55:24;;;;;;;7.40;6.80;;;25.80;99.90;;;;;;6228455;28;89469;-72
2023/08/17 11:58:38;;;;;;;7.00;6.50;;;25.90;99.90;;;;;;6242169;28;89484;-72
2023/08/17 12:01:40;;;;;;;6.78;6.28;;;25.80;99.90;;;;;;6229180;28;89069;-71
2023/08/17 12:04:45;;;;;;;6.68;6.18;;;25.90;99.90;;;;;;6230939;28;89094;-71
2023/08/17 12:07:47;;;;;;;7.25;6.65;;;25.90;99.90;;;;;;6218399;28;89346;-71
2023/08/17 12:10:49;;;;;;;7.00;6.50;;;25.90;99.90;;;;;;6230692;28;89012;-72
2023/08/17 12:13:51;;;;;;;6.85;6.35;;;25.90;99.90;;;;;;6223051;28;88623;-71
2023/08/17 12:16:53;;;;;;;7.50;6.82;;;25.90;99.90;;;;;;6222391;28;88990;-71
2023/08/17 12:19:57;;;;;;;7.03;6.43;;;25.90;99.90;;;;;;6224392;28;89085;-72
2023/08/17 12:22:59;;;;;;;7.40;6.75;;;25.80;99.90;;;;;;6217163;28;90087;-71
2023/08/17 12:26:01;;;;;;;7.18;6.57;;;25.90;99.90;;;;;;6230653;28;89094;-72
2023/08/17 12:29:07;;;;;;;6.80;6.30;;;25.80;99.90;;;;;;6218082;28;89067;-71
2023/08/17 12:32:08;;;;;;;7.40;6.80;;;25.90;99.90;;;;;;6230855;28;89015;-72
2023/08/17 12:35:12;;;;;;;7.60;6.93;;;25.90;99.90;;;;;;6231309;28;89263;-72
2023/08/17 12:38:14;;;;;;;7.28;6.70;;;25.90;99.90;;;;;;6230272;28;89159;-71
2023/08/17 12:41:17;;;;;;;7.00;6.50;;;25.90;99.90;;;;;;6230262;28;89078;-72
2023/08/17 12:44:19;;;;;;;6.93;6.43;;;25.90;99.90;;;;;;6228879;28;87284;-71
2023/08/17 12:47:21;;;;;;;6.95;6.45;;;25.90;99.90;;;;;;6222827;28;89391;-72
2023/08/17 12:50:24;;;;;;;7.10;6.50;;;25.90;99.90;;;;;;6228452;28;89048;-72
2023/08/17 12:53:26;;;;;;;6.82;6.32;;;25.90;99.90;;;;;;6234564;28;90050;-72
2023/08/17 12:56:28;;;;;;;7.20;6.60;;;25.90;99.90;;;;;;6224116;28;89290;-72
2023/08/17 12:59:30;;;;;;;7.20;6.70;;;25.90;99.90;;;;;;6223535;28;89104;-72
2023/08/17 13:02:32;;;;;;;7.35;6.82;;;25.90;99.90;;;;;;6222406;28;89540;-71
2023/08/17 13:05:35;;;;;;;6.93;6.43;;;25.90;99.90;;;;;;6220504;28;88997;-72
2023/08/17 13:08:37;;;;;;;7.53;6.95;;;25.90;99.90;;;;;;6225031;28;88985;-71
2023/08/17 13:11:39;;;;;;;7.40;6.80;;;25.90;99.90;;;;;;6233853;28;89179;-72
2023/08/17 13:14:41;;;;;;;7.38;6.78;;;25.90;99.90;;;;;;6232589;28;88608;-71
2023/08/17 13:17:44;;;;;;;7.38;6.78;;;25.90;99.90;;;;;;6227266;28;89096;-71
2023/08/17 13:20:47;;;;;;;8.07;7.38;;;25.90;99.90;;;;;;6217035;28;88415;-72
2023/08/17 13:23:49;;;;;;;7.63;7.03;;;25.90;99.90;;;;;;6185790;28;89439;-72
2023/08/17 13:26:53;;;;;;;7.40;6.80;;;25.90;99.90;;;;;;6194004;28;89103;-72
2023/08/17 13:29:55;;;;;;;7.25;6.65;;;25.90;99.90;;;;;;6193402;28;89157;-71
2023/08/17 13:32:57;;;;;;;6.88;6.38;;;25.90;99.90;;;;;;6197826;28;89182;-70
2023/08/17 13:36:01;;;;;;;7.13;6.63;;;25.90;99.90;;;;;;6196988;28;89527;-70
2023/08/17 13:39:03;;;;;;;7.28;6.70;;;25.90;99.90;;;;;;6203669;28;89029;-70
2023/08/17 13:42:06;;;;;;;7.55;6.95;;;25.90;99.90;;;;;;6206582;28;89191;-70
2023/08/17 13:45:09;;;;;;;7.45;6.85;;;25.90;99.90;;;;;;6203022;28;88254;-70
2023/08/17 13:48:11;;;;;;;7.35;6.85;;;25.90;99.90;;;;;;6197931;28;89120;-70
2023/08/17 13:51:14;;;;;;;7.22;6.72;;;25.90;99.90;;;;;;6197195;28;89154;-70
2023/08/17 13:54:16;;;;;;;7.32;6.68;;;25.90;99.90;;;;;;6197210;28;90118;-70
2023/08/17 13:57:18;;;;;;;7.55;6.95;;;25.90;99.90;;;;;;6206481;28;89241;-70
2023/08/17 14:00:20;;;;;;;7.07;6.57;;;25.90;99.90;;;;;;6205732;28;87783;-70
2023/08/17 14:03:22;;;;;;;7.18;6.65;;;25.90;99.90;;;;;;6190779;28;89138;-70
2023/08/17 14:06:25;;;;;;;7.57;7.00;;;25.90;99.90;;;;;;6206073;28;89333;-70
2023/08/17 14:09:27;;;;;;;7.05;6.55;;;25.90;99.90;;;;;;6204848;28;88994;-70
2023/08/17 14:12:29;;;;;;;7.65;7.05;;;25.90;99.90;;;;;;6194814;28;89261;-70
2023/08/17 14:15:31;;;;;;;7.68;7.00;;;25.90;99.90;;;;;;6203565;28;88294;-70
2023/08/17 14:18:33;;;;;;;7.32;6.72;;;25.90;99.90;;;;;;6199894;28;89032;-70
2023/08/17 14:21:36;;;;;;;7.18;6.68;;;26.00;99.90;;;;;;6197376;28;88720;-70
2023/08/17 14:24:38;;;;;;;7.55;6.95;;;25.90;99.90;;;;;;6201843;28;89966;-70
2023/08/17 14:27:40;;;;;;;7.22;6.70;;;25.90;99.90;;;;;;6215433;28;88988;-70
2023/08/17 14:30:42;;;;;;;7.80;7.10;;;25.90;99.90;;;;;;6198212;28;89324;-70
2023/08/17 14:33:46;;;;;;;7.55;6.95;;;26.00;99.90;;;;;;6207661;28;89071;-71
2023/08/17 14:36:49;;;;;;;7.05;6.55;;;25.90;99.90;;;;;;6195191;28;89162;-70
2023/08/17 14:39:51;;;;;;;6.88;6.22;;;26.00;99.90;;;;;;6206979;28;89116;-71
2023/08/17 14:42:53;;;;;;;6.95;6.45;;;26.00;99.90;;;;;;6191572;28;89286;-71
2023/08/17 14:45:55;;;;;;;6.90;6.40;;;26.00;99.90;;;;;;6203097;28;87411;-70
2023/08/17 14:48:58;;;;;;;7.13;6.53;;;26.00;99.90;;;;;;6186556;28;89098;-71
2023/08/17 14:52:01;;;;;;;6.97;6.47;;;26.00;99.90;;;;;;6207073;28;89132;-70
2023/08/17 14:55:04;;;;;;;7.03;6.50;;;26.00;99.90;;;;;;6193853;28;90132;-70
2023/08/17 14:58:06;;;;;;;7.28;6.68;;;26.00;99.90;;;;;;6194079;28;89165;-70
2023/08/17 15:01:08;;;;;;;7.10;6.60;;;26.00;99.90;;;;;;6207423;28;89437;-70
2023/08/17 15:04:11;;;;;;;7.18;6.60;;;26.00;99.90;;;;;;6195976;28;89253;-70
2023/08/17 15:07:14;;;;;;;6.97;6.45;;;26.00;99.90;;;;;;6205100;28;89170;-70
2023/08/17 15:10:16;;;;;;;7.10;6.60;;;26.00;99.90;;;;;;6206309;28;89225;-70
2023/08/17 15:13:18;;;;;;;6.88;6.38;;;26.00;99.90;;;;;;6202307;28;89095;-71
2023/08/17 15:16:24;;;;;;;7.25;6.65;;;25.90;99.90;;;;;;6188166;28;88392;-70
2023/08/17 15:19:28;;;;;;;7.22;6.65;;;26.00;99.90;;;;;;6197373;28;89000;-71
2023/08/17 15:22:31;;;;;;;7.43;6.82;;;26.00;99.90;;;;;;6206025;28;89066;-70
2023/08/17 15:25:33;;;;;;;7.25;6.65;;;26.00;99.90;;;;;;6194619;28;90386;-70
2023/08/17 15:28:36;;;;;;;7.10;6.60;;;26.00;99.90;;;;;;6195335;28;88039;-70
2023/08/17 15:31:38;;;;;;;6.57;6.07;;;26.00;99.90;;;;;;6206372;28;89065;-70
2023/08/17 15:34:40;;;;;;;7.50;6.90;;;26.00;99.90;;;;;;6207307;28;89036;-70
2023/08/17 15:37:43;;;;;;;7.20;6.65;;;26.00;99.90;;;;;;6205463;28;88967;-70
2023/08/17 15:40:45;;;;;;;7.00;6.50;;;26.00;99.90;;;;;;6203775;28;89097;-70
2023/08/17 15:43:47;;;;;;;6.82;6.32;;;26.00;99.90;;;;;;6205430;28;89412;-70
2023/08/17 15:46:49;;;;;;;7.03;6.53;;;26.00;99.90;;;;;;6201994;28;88451;-69
2023/08/17 15:49:51;;;;;;;7.15;6.65;;;26.10;99.90;;;;;;6192497;28;89383;-70
2023/08/17 15:52:54;;;;;;;7.60;6.90;;;26.00;99.90;;;;;;6205226;28;89371;-71